Time;durP1;ratioP1;P1;durP2;ratioP2;P2;SDS_P1;SDS_P2;PMS_P1;PMS_P2;Temp;Humidity;BMP_temperature;BMP_pressure;BME280_temperature;BME280_humidity;BME280_pressure;Samples;Min_cycle;Max_cycle;Signal;HPM_P1;HPM_P2
2022/05/26 00:02:20;;;;;;;0.10;0.10;;;12.00;99.90;;;;;;5011198;28;20604;-90
2022/05/26 00:04:46;;;;;;;0.20;0.20;;;12.00;99.90;;;;;;5010549;28;20189;-92
2022/05/26 00:07:11;;;;;;;0.20;0.20;;;12.00;99.90;;;;;;5011018;28;20216;-85
2022/05/26 00:09:37;;;;;;;0.10;0.10;;;11.90;99.90;;;;;;5010321;28;20258;-85
2022/05/26 00:12:03;;;;;;;0.10;0.10;;;11.90;99.90;;;;;;5007872;28;20185;-88
2022/05/26 00:14:30;;;;;;;0.20;0.20;;;11.90;99.90;;;;;;5010710;28;20184;-89
2022/05/26 00:16:56;;;;;;;0.10;0.10;;;11.90;99.90;;;;;;5009917;28;20992;-92
2022/05/26 00:19:22;;;;;;;0.10;0.10;;;11.90;99.90;;;;;;5007290;28;20478;-87
2022/05/26 00:21:49;;;;;;;0.20;0.20;;;12.00;99.90;;;;;;5004679;28;20480;-87
2022/05/26 00:24:18;;;;;;;0.10;0.10;;;11.90;99.90;;;;;;5009979;28;20246;-89
2022/05/26 00:26:45;;;;;;;0.10;0.10;;;12.00;99.90;;;;;;5011964;28;20443;-87
2022/05/26 00:29:11;;;;;;;0.10;0.10;;;12.00;99.90;;;;;;5005566;28;20937;-86
2022/05/26 00:31:37;;;;;;;0.17;0.17;;;12.00;99.90;;;;;;5003717;28;20501;-85
2022/05/26 00:34:02;;;;;;;0.10;0.10;;;12.00;99.90;;;;;;5007549;28;20949;-86
2022/05/26 00:36:37;;;;;;;0.10;0.10;;;12.00;99.90;;;;;;5009810;28;20533;-85
2022/05/26 00:39:05;;;;;;;0.20;0.20;;;12.00;99.90;;;;;;5004651;28;20189;-86
2022/05/26 00:41:31;;;;;;;0.10;0.10;;;12.00;99.90;;;;;;4999147;28;21033;-88
2022/05/26 00:43:56;;;;;;;0.10;0.10;;;12.00;99.90;;;;;;5006017;28;20529;-88
2022/05/26 00:46:34;;;;;;;0.10;0.10;;;12.00;99.90;;;;;;5009240;28;20210;-84
2022/05/26 00:49:01;;;;;;;0.10;0.10;;;12.10;99.90;;;;;;4986428;28;20281;-86
2022/05/26 00:51:31;;;;;;;0.10;0.10;;;12.10;99.90;;;;;;5011471;28;20437;-91
2022/05/26 00:54:02;;;;;;;0.10;0.10;;;12.10;99.90;;;;;;5010190;28;20458;-87
2022/05/26 00:57:03;;;;;;;0.20;0.20;;;12.10;99.90;;;;;;5009490;28;20554;-89
2022/05/26 00:59:47;;;;;;;0.10;0.10;;;12.20;99.90;;;;;;4995988;28;20535;-87
2022/05/26 01:02:15;;;;;;;0.20;0.20;;;12.20;99.90;;;;;;5008753;28;20479;-86
2022/05/26 01:04:50;;;;;;;0.10;0.10;;;12.20;99.90;;;;;;5004979;28;20447;-86
2022/05/26 01:07:22;;;;;;;0.20;0.20;;;12.20;99.90;;;;;;5009314;28;20486;-88
2022/05/26 01:09:47;;;;;;;0.10;0.10;;;12.20;99.90;;;;;;5007441;28;20462;-86
2022/05/26 01:12:13;;;;;;;0.10;0.10;;;12.20;99.90;;;;;;4992163;28;20966;-85
2022/05/26 01:14:45;;;;;;;0.10;0.10;;;12.20;99.90;;;;;;5005900;28;20180;-88
2022/05/26 01:17:20;;;;;;;0.20;0.20;;;12.20;99.90;;;;;;5004752;28;20184;-85
2022/05/26 01:20:08;;;;;;;0.20;0.20;;;12.30;99.90;;;;;;4999342;28;20450;-86
2022/05/26 01:22:45;;;;;;;0.20;0.20;;;12.30;99.90;;;;;;5004218;28;20482;-86
2022/05/26 01:25:45;;;;;;;0.10;0.10;;;12.30;99.90;;;;;;4992374;28;20447;-91
2022/05/26 01:28:55;;;;;;;0.10;0.10;;;12.30;99.90;;;;;;4992309;28;21340;-87
2022/05/26 01:31:48;;;;;;;0.10;0.10;;;12.30;99.90;;;;;;4954732;28;20459;-86
2022/05/26 01:34:48;;;;;;;0.10;0.10;;;12.40;99.90;;;;;;4989578;28;21180;-87
2022/05/26 01:37:20;;;;;;;0.10;0.10;;;12.40;99.90;;;;;;5005977;28;20451;-83
2022/05/26 01:39:59;;;;;;;0.10;0.10;;;12.40;99.90;;;;;;5009489;28;20450;-88
2022/05/26 01:42:38;;;;;;;0.20;0.20;;;12.40;99.90;;;;;;5007909;28;20880;-92
2022/05/26 01:45:23;;;;;;;0.20;0.20;;;12.40;99.90;;;;;;5011443;28;20451;-89
2022/05/26 01:48:26;;;;;;;0.43;0.43;;;12.40;99.90;;;;;;5013400;28;20555;-88
2022/05/26 01:50:54;;;;;;;0.20;0.20;;;12.30;99.90;;;;;;4990463;28;20828;-91
2022/05/26 01:53:50;;;;;;;0.10;0.10;;;12.30;99.90;;;;;;5012213;28;21097;-90
2022/05/26 01:56:38;;;;;;;0.10;0.10;;;12.30;99.90;;;;;;5014935;28;20443;-92
2022/05/26 01:59:09;;;;;;;0.20;0.20;;;12.30;99.90;;;;;;5012574;28;20443;-90
2022/05/26 02:01:40;;;;;;;0.10;0.10;;;12.30;99.90;;;;;;4997287;28;20830;-91
2022/05/26 02:04:10;;;;;;;0.10;0.10;;;12.30;99.90;;;;;;4999415;28;20523;-85
2022/05/26 02:06:42;;;;;;;0.10;0.10;;;12.30;99.90;;;;;;5013839;28;20517;-90
2022/05/26 02:09:15;;;;;;;0.10;0.10;;;12.30;99.90;;;;;;5013833;28;20557;-92
2022/05/26 02:11:52;;;;;;;0.17;0.17;;;12.30;99.90;;;;;;5014390;28;20481;-90
2022/05/26 02:14:27;;;;;;;0.10;0.10;;;12.30;99.90;;;;;;5001700;28;20951;-86
2022/05/26 02:17:18;;;;;;;0.20;0.20;;;12.30;99.90;;;;;;4994444;28;20526;-89
2022/05/26 02:19:50;;;;;;;0.10;0.10;;;12.30;99.90;;;;;;5010125;28;20486;-87
2022/05/26 02:22:30;;;;;;;0.10;0.10;;;12.30;99.90;;;;;;4982503;28;20451;-92
2022/05/26 02:25:00;;;;;;;0.20;0.20;;;12.30;99.90;;;;;;5014517;28;20988;-88
2022/05/26 02:27:27;;;;;;;0.10;0.10;;;12.30;99.90;;;;;;5008617;28;20521;-92
2022/05/26 02:29:55;;;;;;;0.30;0.30;;;12.30;99.90;;;;;;5010963;28;20435;-91
2022/05/26 02:32:40;;;;;;;0.10;0.10;;;12.30;99.90;;;;;;5012864;28;20427;-91
2022/05/26 02:35:29;;;;;;;0.20;0.20;;;12.30;99.90;;;;;;4997974;28;20450;-83
2022/05/26 02:38:02;;;;;;;0.13;0.13;;;12.30;99.90;;;;;;5000716;28;20444;-92
2022/05/26 02:40:29;;;;;;;0.20;0.20;;;12.30;99.90;;;;;;5005192;28;20451;-93
2022/05/26 02:43:12;;;;;;;0.10;0.10;;;12.30;99.90;;;;;;5004636;28;20456;-90
2022/05/26 02:46:15;;;;;;;0.20;0.20;;;12.30;99.90;;;;;;5010764;28;20478;-92
2022/05/26 02:49:18;;;;;;;0.13;0.13;;;12.40;99.90;;;;;;4996969;28;21002;-87
2022/05/26 02:51:46;;;;;;;0.10;0.10;;;12.40;99.90;;;;;;4997919;28;20447;-93
2022/05/26 02:54:38;;;;;;;0.10;0.10;;;12.30;99.90;;;;;;5008569;28;20472;-94
2022/05/26 02:57:29;;;;;;;0.10;0.10;;;12.30;99.90;;;;;;4984629;28;20427;-88
2022/05/26 03:00:07;;;;;;;0.10;0.10;;;12.30;99.90;;;;;;5013820;28;20455;-89
2022/05/26 03:03:04;;;;;;;0.10;0.10;;;12.30;99.90;;;;;;4998906;28;21025;-92
2022/05/26 03:05:44;;;;;;;0.10;0.10;;;12.30;99.90;;;;;;4999964;28;20439;-92
2022/05/26 03:08:15;;;;;;;0.40;0.40;;;12.30;99.90;;;;;;4997498;28;20479;-91
2022/05/26 03:10:50;;;;;;;0.13;0.13;;;12.30;99.90;;;;;;5004347;28;20451;-93
2022/05/26 03:13:16;;;;;;;0.10;0.10;;;12.30;99.90;;;;;;5016112;28;20489;-92
2022/05/26 03:15:41;;;;;;;0.10;0.10;;;12.30;99.90;;;;;;5003986;28;20470;-94
2022/05/26 03:18:07;;;;;;;0.10;0.10;;;12.30;99.90;;;;;;5001350;28;20183;-93
2022/05/26 03:20:33;;;;;;;0.10;0.10;;;12.30;99.90;;;;;;5020374;28;20215;-92
2022/05/26 03:22:58;;;;;;;0.10;0.10;;;12.30;99.90;;;;;;5015613;28;20284;-92
2022/05/26 03:25:24;;;;;;;0.10;0.10;;;12.30;99.90;;;;;;4994712;28;20208;-93
2022/05/26 03:27:50;;;;;;;0.30;0.30;;;12.30;99.90;;;;;;5008693;28;20208;-90
2022/05/26 03:30:16;;;;;;;0.37;0.37;;;12.30;99.90;;;;;;5018662;28;20941;-92
2022/05/26 03:32:42;;;;;;;0.10;0.10;;;12.30;99.90;;;;;;5018789;28;20184;-94
2022/05/26 03:40:50;;;;;;;0.20;0.20;;;12.20;99.90;;;;;;5013159;28;20502;-92
2022/05/26 03:43:16;;;;;;;0.33;0.33;;;12.20;99.90;;;;;;4999648;28;20429;-89
2022/05/26 03:45:42;;;;;;;0.10;0.10;;;12.10;99.90;;;;;;4997360;28;20451;-91
2022/05/26 03:48:09;;;;;;;0.10;0.10;;;12.20;99.90;;;;;;5011066;28;20469;-92
2022/05/26 03:50:35;;;;;;;0.20;0.20;;;12.20;99.90;;;;;;4998944;28;20177;-92
2022/05/26 03:53:01;;;;;;;0.10;0.10;;;12.20;99.90;;;;;;5005430;28;20436;-95
2022/05/26 03:55:26;;;;;;;0.10;0.10;;;12.20;99.90;;;;;;5007595;28;20981;-94
2022/05/26 03:57:52;;;;;;;0.10;0.10;;;12.20;99.90;;;;;;4997186;28;20308;-89
2022/05/26 04:00:21;;;;;;;0.10;0.10;;;12.20;99.90;;;;;;4992734;28;20597;-91
2022/05/26 04:02:47;;;;;;;0.10;0.10;;;12.20;99.90;;;;;;4993201;28;20490;-91
2022/05/26 04:05:13;;;;;;;0.10;0.10;;;12.20;99.90;;;;;;5010074;28;20455;-89
2022/05/26 04:07:39;;;;;;;0.10;0.10;;;12.20;99.90;;;;;;5009317;28;20482;-91
2022/05/26 04:10:10;;;;;;;0.10;0.10;;;12.20;99.90;;;;;;5013862;28;20462;-91
2022/05/26 04:12:37;;;;;;;0.20;0.20;;;12.20;99.90;;;;;;5014444;28;20253;-90
2022/05/26 04:15:04;;;;;;;0.20;0.20;;;12.20;99.90;;;;;;4995732;28;20444;-91
2022/05/26 04:17:30;;;;;;;0.17;0.17;;;12.20;99.90;;;;;;4994516;28;20981;-88
2022/05/26 04:19:55;;;;;;;0.10;0.10;;;12.20;99.90;;;;;;5010017;28;20450;-92
2022/05/26 04:22:23;;;;;;;0.20;0.20;;;12.20;99.90;;;;;;5001895;28;20724;-92
2022/05/26 04:24:53;;;;;;;0.10;0.10;;;12.20;99.90;;;;;;4991880;28;20567;-92
2022/05/26 04:27:20;;;;;;;0.20;0.20;;;12.20;99.90;;;;;;4990560;28;20546;-92
2022/05/26 04:29:45;;;;;;;0.20;0.20;;;12.20;99.90;;;;;;5013255;28;20459;-93
2022/05/26 04:32:12;;;;;;;0.20;0.20;;;12.20;99.90;;;;;;5011071;28;20954;-91
2022/05/26 04:34:38;;;;;;;0.10;0.10;;;12.20;99.90;;;;;;5012932;28;20192;-90
2022/05/26 04:37:04;;;;;;;0.10;0.10;;;12.10;99.90;;;;;;5011236;28;20434;-92
2022/05/26 04:39:31;;;;;;;0.10;0.10;;;12.10;99.90;;;;;;5000541;28;20454;-93
2022/05/26 04:42:01;;;;;;;0.20;0.20;;;12.10;99.90;;;;;;5014579;28;20757;-94
2022/05/26 04:44:37;;;;;;;0.20;0.20;;;12.20;99.90;;;;;;5013750;28;20530;-91
2022/05/26 04:47:03;;;;;;;0.10;0.10;;;12.20;99.90;;;;;;4993499;28;20882;-89
2022/05/26 04:49:28;;;;;;;0.20;0.20;;;12.20;99.90;;;;;;5007682;28;20524;-93
2022/05/26 04:51:55;;;;;;;0.20;0.20;;;12.30;99.90;;;;;;5012956;28;20415;-92
2022/05/26 04:54:21;;;;;;;0.20;0.20;;;12.30;99.90;;;;;;5009322;28;20189;-90
2022/05/26 04:56:47;;;;;;;0.10;0.10;;;12.30;99.90;;;;;;5007396;28;20590;-92
2022/05/26 04:59:13;;;;;;;0.10;0.10;;;12.40;99.90;;;;;;5001493;28;20446;-91
2022/05/26 05:01:38;;;;;;;0.20;0.20;;;12.40;99.90;;;;;;4991278;28;20491;-93
2022/05/26 05:04:04;;;;;;;0.20;0.20;;;12.40;99.90;;;;;;5011039;28;20563;-91
2022/05/26 05:06:30;;;;;;;0.20;0.20;;;12.40;99.90;;;;;;4991662;28;20267;-91
2022/05/26 05:08:55;;;;;;;0.10;0.10;;;12.50;99.90;;;;;;4992025;28;20807;-90
2022/05/26 05:11:21;;;;;;;0.10;0.10;;;12.40;99.90;;;;;;4993171;28;20184;-94
2022/05/26 05:13:46;;;;;;;0.10;0.10;;;12.40;99.90;;;;;;4993604;28;20185;-87
2022/05/26 05:16:21;;;;;;;0.17;0.17;;;12.40;99.90;;;;;;4995347;28;20191;-91
2022/05/26 05:18:46;;;;;;;0.20;0.20;;;12.40;99.90;;;;;;5016330;28;20190;-93
2022/05/26 05:21:17;;;;;;;0.20;0.20;;;12.40;99.90;;;;;;5016963;28;20537;-96
2022/05/26 05:23:47;;;;;;;0.20;0.20;;;12.50;99.90;;;;;;4997016;28;20603;-93
2022/05/26 05:26:16;;;;;;;0.20;0.20;;;12.50;99.90;;;;;;5011650;28;20535;-91
2022/05/26 05:28:54;;;;;;;0.10;0.10;;;12.60;99.90;;;;;;5036435;28;20478;-96
2022/05/26 05:31:26;;;;;;;0.43;0.43;;;12.60;99.90;;;;;;4997674;28;20470;-89
2022/05/26 05:34:20;;;;;;;0.20;0.20;;;12.70;99.90;;;;;;5018066;28;20443;-93
2022/05/26 05:36:46;;;;;;;0.27;0.27;;;12.70;99.90;;;;;;5006498;28;20443;-87
2022/05/26 05:39:11;;;;;;;0.37;0.37;;;12.80;99.90;;;;;;4994134;28;20460;-92
2022/05/26 05:41:37;;;;;;;0.10;0.10;;;12.80;99.90;;;;;;5014669;28;20259;-90
2022/05/26 05:44:04;;;;;;;0.10;0.10;;;12.90;99.90;;;;;;5010605;28;20228;-93
2022/05/26 05:46:34;;;;;;;0.10;0.10;;;12.90;99.90;;;;;;5007303;28;20527;-95
2022/05/26 05:49:04;;;;;;;0.10;0.10;;;13.00;99.90;;;;;;5009908;28;20518;-91
2022/05/26 05:51:31;;;;;;;0.10;0.10;;;13.10;99.90;;;;;;4990987;28;20483;-90
2022/05/26 05:53:56;;;;;;;0.20;0.20;;;13.20;99.90;;;;;;5009926;28;20450;-92
2022/05/26 05:56:22;;;;;;;0.20;0.20;;;13.30;99.90;;;;;;5011347;28;20507;-89
2022/05/26 05:58:47;;;;;;;0.10;0.10;;;13.20;99.90;;;;;;5007921;28;20192;-87
2022/05/26 06:01:13;;;;;;;0.10;0.10;;;13.30;99.90;;;;;;4994858;28;20648;-91
2022/05/26 06:03:39;;;;;;;0.20;0.20;;;13.40;99.90;;;;;;5010269;28;20192;-94
2022/05/26 06:06:07;;;;;;;0.10;0.10;;;13.30;99.90;;;;;;5011100;28;20652;-88
2022/05/26 06:08:33;;;;;;;0.20;0.20;;;13.30;99.90;;;;;;5011408;28;20807;-88
2022/05/26 06:10:59;;;;;;;0.10;0.10;;;13.40;99.90;;;;;;5004686;28;20526;-85
2022/05/26 06:13:25;;;;;;;0.20;0.20;;;13.50;99.90;;;;;;5010472;28;20538;-88
2022/05/26 06:15:50;;;;;;;0.10;0.10;;;13.40;99.90;;;;;;4995319;28;20191;-87
2022/05/26 06:18:16;;;;;;;0.20;0.20;;;13.40;99.90;;;;;;5011013;28;21129;-93
2022/05/26 06:20:43;;;;;;;0.20;0.20;;;13.60;99.90;;;;;;5008437;28;20194;-88
2022/05/26 06:23:09;;;;;;;0.10;0.10;;;13.60;99.90;;;;;;5009654;28;20203;-91
2022/05/26 06:25:34;;;;;;;0.20;0.20;;;13.40;99.90;;;;;;4989721;28;20484;-90
2022/05/26 06:30:44;;;;;;;0.20;0.20;;;13.60;99.90;;;;;;5010118;28;20226;-92
2022/05/26 06:38:42;;;;;;;0.10;0.10;;;13.60;99.90;;;;;;5011484;28;20552;-91
2022/05/26 06:43:55;;;;;;;0.10;0.10;;;14.00;99.90;;;;;;5006393;28;20537;-92
2022/05/26 06:46:21;;;;;;;0.10;0.10;;;14.10;99.90;;;;;;5005825;28;20502;-94
2022/05/26 06:48:47;;;;;;;0.10;0.10;;;14.10;99.90;;;;;;5004435;28;20212;-93
2022/05/26 06:51:13;;;;;;;0.20;0.20;;;13.80;99.90;;;;;;4987244;28;20447;-90
2022/05/26 06:53:38;;;;;;;0.10;0.10;;;13.60;99.90;;;;;;5010911;28;20821;-92
2022/05/26 06:56:05;;;;;;;0.10;0.10;;;13.50;99.90;;;;;;5005943;28;20203;-90
2022/05/26 06:58:31;;;;;;;0.20;0.20;;;13.50;99.90;;;;;;4994576;28;20184;-92
2022/05/26 07:00:57;;;;;;;0.17;0.17;;;13.40;99.90;;;;;;5007650;28;20531;-91
2022/05/26 07:03:23;;;;;;;0.20;0.20;;;13.30;99.90;;;;;;5008378;28;20303;-88
2022/05/26 07:05:50;;;;;;;0.20;0.20;;;13.40;99.90;;;;;;5010700;28;20539;-87
2022/05/26 07:08:16;;;;;;;0.10;0.10;;;13.40;99.90;;;;;;5008346;28;20234;-88
2022/05/26 07:10:42;;;;;;;0.20;0.20;;;13.60;99.90;;;;;;4991087;28;20453;-90
2022/05/26 07:13:08;;;;;;;0.10;0.10;;;13.70;99.90;;;;;;5009916;28;20447;-87
2022/05/26 07:15:33;;;;;;;0.10;0.10;;;13.90;99.90;;;;;;5003142;28;20821;-88
2022/05/26 07:18:02;;;;;;;0.10;0.10;;;14.20;99.90;;;;;;4996889;28;20187;-92
2022/05/26 07:20:28;;;;;;;0.10;0.10;;;14.10;99.90;;;;;;5002499;28;20271;-86
2022/05/26 07:22:53;;;;;;;0.10;0.10;;;14.20;99.90;;;;;;5005871;28;21706;-91
2022/05/26 07:25:19;;;;;;;0.10;0.10;;;14.10;99.90;;;;;;5005869;28;20182;-88
2022/05/26 07:27:44;;;;;;;0.10;0.10;;;13.90;99.90;;;;;;5010803;28;20238;-87
2022/05/26 07:30:10;;;;;;;0.10;0.10;;;13.80;99.90;;;;;;4987635;28;20192;-86
2022/05/26 07:32:36;;;;;;;0.10;0.10;;;14.20;99.90;;;;;;5018245;28;20196;-90
2022/05/26 07:35:02;;;;;;;0.10;0.10;;;14.50;99.90;;;;;;5011514;28;20192;-86
2022/05/26 07:42:56;;;;;;;0.10;0.10;;;14.80;99.90;;;;;;5000175;28;20534;-87
2022/05/26 07:45:22;;;;;;;0.10;0.10;;;14.50;99.90;;;;;;5007423;28;20519;-88
2022/05/26 07:47:48;;;;;;;0.10;0.10;;;14.70;99.90;;;;;;5007819;28;20236;-85
2022/05/26 07:50:20;;;;;;;0.10;0.10;;;14.60;99.90;;;;;;4996971;28;20592;-86
2022/05/26 07:52:48;;;;;;;0.10;0.10;;;14.70;99.90;;;;;;5011126;28;20177;-89
2022/05/26 07:55:14;;;;;;;0.10;0.10;;;14.80;99.90;;;;;;4991219;28;20866;-87
2022/05/26 07:57:39;;;;;;;0.10;0.10;;;14.50;99.90;;;;;;5005398;28;20612;-85
2022/05/26 08:00:06;;;;;;;0.10;0.10;;;14.70;99.90;;;;;;5010013;28;20439;-92
2022/05/26 08:02:32;;;;;;;0.10;0.10;;;14.60;99.90;;;;;;5007525;28;20248;-90
2022/05/26 08:04:57;;;;;;;0.20;0.20;;;14.70;99.90;;;;;;5009706;28;20486;-88
2022/05/26 08:07:23;;;;;;;0.20;0.20;;;15.10;99.90;;;;;;5012765;28;20303;-88
2022/05/26 08:09:49;;;;;;;0.10;0.10;;;15.10;99.90;;;;;;5006016;28;20215;-87
2022/05/26 08:12:15;;;;;;;0.10;0.10;;;15.10;99.90;;;;;;5010995;28;20427;-93
2022/05/26 08:14:43;;;;;;;0.10;0.10;;;15.20;99.90;;;;;;5013025;28;20623;-88
2022/05/26 08:17:13;;;;;;;0.10;0.10;;;15.20;99.90;;;;;;5010673;28;20632;-86
2022/05/26 08:19:40;;;;;;;0.10;0.10;;;15.00;99.90;;;;;;4993834;28;21031;-88
2022/05/26 08:22:05;;;;;;;0.10;0.10;;;15.60;99.90;;;;;;5010812;28;20474;-90
2022/05/26 08:24:31;;;;;;;0.10;0.10;;;15.30;99.90;;;;;;4994649;28;20486;-89
2022/05/26 08:26:57;;;;;;;0.10;0.10;;;15.40;99.90;;;;;;4975164;28;20177;-94
2022/05/26 08:29:24;;;;;;;0.10;0.10;;;15.00;99.90;;;;;;4999927;28;20537;-86
2022/05/26 08:31:49;;;;;;;0.10;0.10;;;15.20;99.90;;;;;;5000974;28;20667;-88
2022/05/26 08:34:16;;;;;;;0.20;0.20;;;15.40;99.90;;;;;;5000502;28;20455;-89
2022/05/26 08:36:42;;;;;;;0.10;0.10;;;15.40;99.90;;;;;;4992599;28;20656;-91
2022/05/26 08:39:08;;;;;;;0.10;0.10;;;15.70;99.90;;;;;;5009691;28;20446;-87
2022/05/26 08:41:42;;;;;;;0.10;0.10;;;16.00;99.90;;;;;;5012846;28;20415;-93
2022/05/26 08:44:11;;;;;;;0.10;0.10;;;16.30;99.90;;;;;;5011792;28;20479;-88
2022/05/26 08:46:50;;;;;;;0.10;0.10;;;15.70;99.90;;;;;;5006537;28;20448;-91
2022/05/26 08:49:25;;;;;;;0.10;0.10;;;15.90;99.90;;;;;;4992332;28;20514;-91
2022/05/26 08:51:55;;;;;;;0.10;0.10;;;16.00;99.90;;;;;;5005396;28;20497;-88
2022/05/26 08:54:50;;;;;;;0.10;0.10;;;16.10;99.90;;;;;;5000975;28;20788;-91
2022/05/26 08:57:23;;;;;;;0.10;0.10;;;16.00;99.90;;;;;;5005084;28;20954;-89
2022/05/26 08:59:48;;;;;;;0.10;0.10;;;16.10;99.90;;;;;;5008299;28;20438;-91
2022/05/26 09:02:32;;;;;;;0.10;0.10;;;15.90;99.90;;;;;;5013048;28;20490;-88
2022/05/26 09:05:00;;;;;;;0.10;0.10;;;15.80;99.90;;;;;;5011467;28;20212;-87
2022/05/26 09:13:12;;;;;;;0.10;0.10;;;15.60;99.90;;;;;;5006317;28;20449;-86
2022/05/26 09:15:38;;;;;;;0.10;0.10;;;15.50;99.90;;;;;;5013566;28;20960;-90
2022/05/26 09:18:21;;;;;;;0.10;0.10;;;16.20;99.90;;;;;;4991352;28;20439;-92
2022/05/26 09:20:51;;;;;;;0.10;0.10;;;16.50;99.90;;;;;;5010174;28;20951;-95
2022/05/26 09:23:28;;;;;;;0.10;0.10;;;16.00;99.90;;;;;;4992009;28;21001;-90
2022/05/26 09:26:06;;;;;;;0.10;0.10;;;16.10;99.90;;;;;;4996855;28;20587;-88
2022/05/26 09:28:38;;;;;;;0.10;0.10;;;15.90;99.90;;;;;;5012449;28;20530;-88
2022/05/26 09:31:16;;;;;;;0.10;0.10;;;15.60;99.90;;;;;;5003993;28;20440;-92
2022/05/26 09:33:41;;;;;;;0.10;0.10;;;15.10;99.90;;;;;;5007743;28;20454;-88
2022/05/26 09:36:21;;;;;;;0.10;0.10;;;15.80;99.90;;;;;;5011690;28;20953;-87
2022/05/26 09:38:47;;;;;;;0.10;0.10;;;15.70;99.90;;;;;;5011880;28;20179;-91
2022/05/26 09:41:16;;;;;;;0.10;0.10;;;15.30;99.90;;;;;;5015118;28;20459;-96
2022/05/26 09:43:57;;;;;;;0.10;0.10;;;15.40;99.90;;;;;;5007791;28;20450;-91
2022/05/26 09:46:26;;;;;;;0.10;0.10;;;15.50;99.90;;;;;;5006700;28;20442;-91
2022/05/26 09:48:58;;;;;;;0.10;0.10;;;15.40;99.90;;;;;;4991314;28;20516;-88
2022/05/26 09:51:25;;;;;;;0.10;0.10;;;15.30;99.90;;;;;;4992538;28;20851;-89
2022/05/26 09:53:53;;;;;;;0.10;0.10;;;15.30;99.90;;;;;;4991335;28;20554;-91
2022/05/26 09:56:40;;;;;;;0.10;0.10;;;16.00;99.90;;;;;;5010767;28;20439;-83
2022/05/26 09:59:31;;;;;;;0.10;0.10;;;16.20;99.90;;;;;;4998705;28;20443;-88
2022/05/26 10:02:01;;;;;;;0.10;0.10;;;15.90;99.90;;;;;;5009685;28;20513;-90
2022/05/26 10:04:54;;;;;;;0.10;0.10;;;16.10;99.90;;;;;;5004678;28;20481;-88
2022/05/26 10:07:28;;;;;;;0.10;0.10;;;16.00;99.90;;;;;;5001805;28;20485;-87
2022/05/26 10:10:08;;;;;;;0.10;0.10;;;15.90;99.90;;;;;;4988169;28;20466;-92
2022/05/26 10:13:12;;;;;;;0.10;0.10;;;15.60;99.90;;;;;;5005959;28;20586;-84
2022/05/26 10:15:53;;;;;;;0.10;0.10;;;16.00;99.90;;;;;;5005823;28;20443;-87
2022/05/26 10:19:02;;;;;;;0.10;0.10;;;16.10;99.90;;;;;;5008005;28;20525;-86
2022/05/26 10:22:09;;;;;;;0.10;0.10;;;16.20;99.90;;;;;;5001334;28;20452;-88
2022/05/26 10:24:53;;;;;;;0.10;0.10;;;16.20;99.90;;;;;;4989850;28;20483;-87
2022/05/26 10:27:21;;;;;;;0.10;0.10;;;16.00;99.90;;;;;;5010479;28;20442;-86
2022/05/26 10:30:06;;;;;;;0.10;0.10;;;16.20;99.90;;;;;;5013557;28;20455;-86
2022/05/26 10:32:59;;;;;;;0.10;0.10;;;16.20;99.90;;;;;;5013239;28;20443;-83
2022/05/26 10:35:26;;;;;;;0.10;0.10;;;17.00;99.90;;;;;;5016052;28;20455;-91
2022/05/26 10:38:27;;;;;;;0.10;0.10;;;17.00;99.90;;;;;;5012690;28;20443;-86
2022/05/26 10:41:01;;;;;;;0.10;0.10;;;16.70;99.90;;;;;;5011440;28;20458;-91
2022/05/26 10:43:40;;;;;;;0.10;0.10;;;16.80;99.90;;;;;;4991062;28;20452;-90
2022/05/26 10:46:09;;;;;;;0.10;0.10;;;16.00;99.90;;;;;;5011514;28;20458;-88
2022/05/26 10:48:53;;;;;;;0.10;0.10;;;15.50;99.90;;;;;;4990335;28;20492;-91
2022/05/26 10:51:24;;;;;;;0.10;0.10;;;15.40;99.90;;;;;;5005736;28;20439;-87
2022/05/26 10:53:59;;;;;;;0.10;0.10;;;15.60;99.90;;;;;;5007979;28;20450;-87
2022/05/26 10:56:43;;;;;;;0.10;0.10;;;15.40;99.90;;;;;;5008590;28;20904;-87
2022/05/26 10:59:09;;;;;;;0.10;0.10;;;15.10;99.90;;;;;;5006495;28;20952;-92
2022/05/26 11:01:40;;;;;;;0.10;0.10;;;15.10;99.90;;;;;;4986098;28;20474;-90
2022/05/26 11:04:50;;;;;;;0.10;0.10;;;15.40;99.90;;;;;;5007194;28;20192;-89
2022/05/26 11:07:25;;;;;;;0.10;0.10;;;15.80;99.90;;;;;;5005506;28;20439;-85
2022/05/26 11:09:54;;;;;;;0.10;0.10;;;16.20;99.90;;;;;;4989367;28;20542;-87
2022/05/26 11:12:37;;;;;;;0.10;0.10;;;17.30;99.90;;;;;;5009016;28;20461;-87
2022/05/26 11:18:21;;;;;;;0.10;0.10;;;17.80;99.90;;;;;;5006775;28;20465;-91
2022/05/26 11:20:53;;;;;;;0.10;0.10;;;16.80;99.90;;;;;;5009464;28;20447;-90
2022/05/26 11:23:20;;;;;;;0.10;0.10;;;16.10;99.90;;;;;;5011831;28;20439;-85
2022/05/26 11:26:21;;;;;;;0.10;0.10;;;15.80;99.90;;;;;;4991959;28;20450;-89
2022/05/26 11:28:52;;;;;;;0.10;0.10;;;15.60;99.90;;;;;;4956782;28;20492;-88
2022/05/26 11:38:11;;;;;;;0.10;0.10;;;15.40;99.90;;;;;;4999556;28;20482;-85
2022/05/26 11:41:01;;;;;;;0.10;0.10;;;15.20;99.90;;;;;;4988778;28;20490;-87
2022/05/26 11:43:33;;;;;;;0.10;0.10;;;15.30;99.90;;;;;;4984183;28;20449;-88
2022/05/26 11:46:00;;;;;;;0.10;0.10;;;16.70;99.90;;;;;;4977006;28;20448;-86
2022/05/26 11:48:31;;;;;;;0.10;0.10;;;16.30;99.90;;;;;;4994963;28;21226;-93
2022/05/26 11:51:02;;;;;;;0.10;0.10;;;15.80;99.90;;;;;;5003148;28;20462;-93
2022/05/26 11:53:28;;;;;;;0.10;0.10;;;15.70;99.90;;;;;;4992700;28;21086;-87
2022/05/26 11:55:58;;;;;;;0.10;0.10;;;16.30;99.90;;;;;;4985248;28;20527;-88
2022/05/26 11:58:33;;;;;;;0.10;0.10;;;18.10;99.90;;;;;;5008029;28;20278;-93
2022/05/26 12:01:23;;;;;;;0.10;0.10;;;19.10;99.90;;;;;;5002416;28;20436;-91
2022/05/26 12:03:55;;;;;;;0.10;0.00;;;20.30;99.90;;;;;;5006290;28;20930;-90
2022/05/26 12:06:39;;;;;;;0.10;0.00;;;20.10;99.90;;;;;;5002171;28;20886;-87
2022/05/26 12:09:11;;;;;;;0.10;0.10;;;18.50;99.90;;;;;;5004698;28;21087;-85
2022/05/26 12:11:55;;;;;;;0.10;0.00;;;19.00;99.90;;;;;;5002544;28;20435;-90
2022/05/26 12:14:34;;;;;;;0.10;0.00;;;19.70;99.90;;;;;;5010769;28;20454;-87
2022/05/26 12:17:33;;;;;;;0.10;0.00;;;19.50;99.90;;;;;;5001651;28;20954;-89
2022/05/26 12:20:12;;;;;;;0.10;0.00;;;19.30;99.90;;;;;;4997357;28;20546;-86
2022/05/26 12:22:41;;;;;;;0.10;0.00;;;19.70;99.90;;;;;;4993759;28;20446;-90
2022/05/26 12:25:29;;;;;;;0.10;0.00;;;18.60;99.90;;;;;;4989465;28;20451;-87
2022/05/26 12:28:15;;;;;;;0.10;0.10;;;17.30;99.90;;;;;;5008353;28;20478;-92
2022/05/26 12:30:48;;;;;;;0.10;0.10;;;17.60;99.90;;;;;;4991201;28;20444;-89
2022/05/26 12:33:24;;;;;;;0.10;0.00;;;18.10;99.90;;;;;;5008497;28;20482;-85
2022/05/26 12:36:27;;;;;;;0.10;0.10;;;17.70;99.90;;;;;;5008344;28;20431;-86
2022/05/26 12:39:31;;;;;;;0.10;0.10;;;17.50;99.90;;;;;;5008534;28;20478;-92
2022/05/26 12:42:09;;;;;;;0.10;0.10;;;17.40;99.90;;;;;;4991466;28;20438;-87
2022/05/26 12:44:37;;;;;;;0.10;0.10;;;16.80;99.90;;;;;;4992136;28;20447;-89
2022/05/26 12:47:38;;;;;;;0.10;0.10;;;16.90;99.90;;;;;;5005367;28;20502;-92
2022/05/26 12:50:18;;;;;;;0.10;0.10;;;17.20;99.90;;;;;;5008310;28;20497;-95
2022/05/26 12:53:09;;;;;;;0.10;0.10;;;16.90;99.90;;;;;;4999975;28;20435;-92
2022/05/26 12:55:55;;;;;;;0.10;0.10;;;16.50;99.90;;;;;;4990573;28;20447;-89
2022/05/26 12:58:43;;;;;;;0.10;0.10;;;16.80;99.90;;;;;;4994432;28;20443;-90
2022/05/26 13:01:15;;;;;;;0.10;0.10;;;16.60;99.90;;;;;;4974817;28;20551;-90
2022/05/26 13:03:46;;;;;;;0.10;0.10;;;16.60;99.90;;;;;;4995530;28;20459;-89
2022/05/26 13:06:27;;;;;;;0.10;0.10;;;16.80;99.90;;;;;;4987151;28;20444;-90
2022/05/26 13:09:07;;;;;;;0.10;0.10;;;17.10;99.90;;;;;;4995885;28;20498;-89
2022/05/26 13:11:44;;;;;;;0.10;0.10;;;17.20;99.90;;;;;;4997329;28;20962;-89
2022/05/26 13:14:36;;;;;;;0.10;0.10;;;17.40;99.90;;;;;;4999170;28;20533;-89
2022/05/26 13:17:16;;;;;;;0.10;0.10;;;17.80;99.90;;;;;;5003351;28;20435;-91
2022/05/26 13:19:47;;;;;;;0.10;0.10;;;17.80;99.90;;;;;;4995449;28;20446;-89
2022/05/26 13:22:23;;;;;;;0.10;0.10;;;17.70;99.90;;;;;;4983544;28;20460;-90
2022/05/26 13:24:57;;;;;;;0.10;0.10;;;17.70;99.90;;;;;;4997564;28;20436;-87
2022/05/26 13:27:26;;;;;;;0.10;0.10;;;17.00;99.90;;;;;;4998965;28;21359;-89
2022/05/26 13:29:53;;;;;;;0.10;0.10;;;16.80;99.90;;;;;;4977628;28;20478;-88
2022/05/26 13:35:19;;;;;;;0.10;0.10;;;16.10;99.90;;;;;;4999138;28;20804;-88
2022/05/26 13:37:45;;;;;;;0.10;0.10;;;16.00;99.90;;;;;;4989930;28;20442;-89
2022/05/26 13:40:16;;;;;;;0.10;0.10;;;16.10;99.90;;;;;;4993520;28;20482;-86
2022/05/26 13:42:44;;;;;;;0.10;0.10;;;16.00;99.90;;;;;;4997940;28;20505;-88
2022/05/26 13:45:31;;;;;;;0.10;0.10;;;16.20;99.90;;;;;;5001167;28;20446;-90
2022/05/26 13:48:25;;;;;;;0.10;0.10;;;16.60;99.90;;;;;;4993618;28;20466;-88
2022/05/26 13:50:53;;;;;;;0.10;0.10;;;17.10;99.90;;;;;;4998348;28;20461;-88
2022/05/26 13:53:19;;;;;;;0.10;0.10;;;17.30;99.90;;;;;;5009871;28;20438;-88
2022/05/26 13:55:46;;;;;;;0.10;0.10;;;17.60;99.90;;;;;;4995082;28;20443;-85
2022/05/26 13:58:15;;;;;;;0.10;0.10;;;17.60;99.90;;;;;;4996475;28;20440;-86
2022/05/26 14:00:40;;;;;;;0.10;0.10;;;17.50;99.90;;;;;;4996282;28;20586;-88